sensor_id;sensor_type;location;lat;lon;timestamp;temperature;humidity
67027;DHT22;53933;52.142;11.738;2022-11-03T00:02:06;22.90;73.60
67027;DHT22;53933;52.142;11.738;2022-11-03T00:04:32;22.90;73.50
67027;DHT22;53933;52.142;11.738;2022-11-03T00:06:59;22.90;73.60
67027;DHT22;53933;52.142;11.738;2022-11-03T00:09:26;22.90;73.60
67027;DHT22;53933;52.142;11.738;2022-11-03T00:11:53;22.90;73.60
67027;DHT22;53933;52.142;11.738;2022-11-03T00:14:19;22.90;73.60
67027;DHT22;53933;52.142;11.738;2022-11-03T00:16:46;22.90;73.60
67027;DHT22;53933;52.142;11.738;2022-11-03T00:19:14;22.90;73.60
67027;DHT22;53933;52.142;11.738;2022-11-03T00:21:42;22.90;73.70
67027;DHT22;53933;52.142;11.738;2022-11-03T00:24:09;22.90;73.70
67027;DHT22;53933;52.142;11.738;2022-11-03T00:26:36;22.90;73.60
67027;DHT22;53933;52.142;11.738;2022-11-03T00:29:06;22.90;73.70
67027;DHT22;53933;52.142;11.738;2022-11-03T00:31:35;22.90;73.60
67027;DHT22;53933;52.142;11.738;2022-11-03T00:34:03;22.90;73.70
67027;DHT22;53933;52.142;11.738;2022-11-03T00:36:34;22.90;73.60
67027;DHT22;53933;52.142;11.738;2022-11-03T00:39:01;22.80;73.40
67027;DHT22;53933;52.142;11.738;2022-11-03T00:41:28;22.90;73.90
67027;DHT22;53933;52.142;11.738;2022-11-03T00:43:55;22.80;73.70
67027;DHT22;53933;52.142;11.738;2022-11-03T00:46:24;22.80;73.90
67027;DHT22;53933;52.142;11.738;2022-11-03T00:48:52;22.90;73.70
67027;DHT22;53933;52.142;11.738;2022-11-03T00:51:21;22.90;73.80
67027;DHT22;53933;52.142;11.738;2022-11-03T00:53:50;22.90;73.80
67027;DHT22;53933;52.142;11.738;2022-11-03T00:56:19;22.90;73.50
67027;DHT22;53933;52.142;11.738;2022-11-03T00:58:47;22.90;73.60
67027;DHT22;53933;52.142;11.738;2022-11-03T01:01:16;22.90;73.90
67027;DHT22;53933;52.142;11.738;2022-11-03T01:03:45;22.80;73.70
67027;DHT22;53933;52.142;11.738;2022-11-03T01:06:26;22.90;73.90
67027;DHT22;53933;52.142;11.738;2022-11-03T01:09:14;22.80;73.90
67027;DHT22;53933;52.142;11.738;2022-11-03T01:11:42;22.80;73.80
67027;DHT22;53933;52.142;11.738;2022-11-03T01:14:13;22.80;73.80
67027;DHT22;53933;52.142;11.738;2022-11-03T01:16:40;22.90;73.90
67027;DHT22;53933;52.142;11.738;2022-11-03T01:19:07;22.80;73.80
67027;DHT22;53933;52.142;11.738;2022-11-03T01:21:34;22.80;73.90
67027;DHT22;53933;52.142;11.738;2022-11-03T01:24:03;22.80;73.80
67027;DHT22;53933;52.142;11.738;2022-11-03T01:26:31;22.80;73.80
67027;DHT22;53933;52.142;11.738;2022-11-03T01:28:59;22.80;74.00
67027;DHT22;53933;52.142;11.738;2022-11-03T01:31:26;22.80;73.90
67027;DHT22;53933;52.142;11.738;2022-11-03T01:33:54;22.80;73.90
67027;DHT22;53933;52.142;11.738;2022-11-03T01:36:21;22.80;73.90
67027;DHT22;53933;52.142;11.738;2022-11-03T01:38:49;22.80;73.80
67027;DHT22;53933;52.142;11.738;2022-11-03T01:41:17;22.80;74.00
67027;DHT22;53933;52.142;11.738;2022-11-03T01:43:48;22.80;74.00
67027;DHT22;53933;52.142;11.738;2022-11-03T01:46:18;22.80;74.00
67027;DHT22;53933;52.142;11.738;2022-11-03T01:48:48;22.80;74.00
67027;DHT22;53933;52.142;11.738;2022-11-03T01:51:19;22.80;74.00
67027;DHT22;53933;52.142;11.738;2022-11-03T01:53:50;22.80;74.00
67027;DHT22;53933;52.142;11.738;2022-11-03T01:56:19;22.80;74.00
67027;DHT22;53933;52.142;11.738;2022-11-03T01:58:50;22.80;73.90
67027;DHT22;53933;52.142;11.738;2022-11-03T02:01:19;22.80;74.00
67027;DHT22;53933;52.142;11.738;2022-11-03T02:03:48;22.80;74.00
67027;DHT22;53933;52.142;11.738;2022-11-03T02:06:17;22.80;74.00
67027;DHT22;53933;52.142;11.738;2022-11-03T02:08:49;22.80;74.00
67027;DHT22;53933;52.142;11.738;2022-11-03T02:11:17;22.80;74.10
67027;DHT22;53933;52.142;11.738;2022-11-03T02:14:03;22.80;74.00
67027;DHT22;53933;52.142;11.738;2022-11-03T02:16:30;22.80;73.90
67027;DHT22;53933;52.142;11.738;2022-11-03T02:18:59;22.80;74.10
67027;DHT22;53933;52.142;11.738;2022-11-03T02:21:29;22.80;74.10
67027;DHT22;53933;52.142;11.738;2022-11-03T02:24:05;22.80;74.20
67027;DHT22;53933;52.142;11.738;2022-11-03T02:26:37;22.80;74.90
67027;DHT22;53933;52.142;11.738;2022-11-03T02:29:04;22.80;74.10
67027;DHT22;53933;52.142;11.738;2022-11-03T02:31:35;22.80;74.20
67027;DHT22;53933;52.142;11.738;2022-11-03T02:34:07;22.80;74.10
67027;DHT22;53933;52.142;11.738;2022-11-03T02:36:40;22.80;74.10
67027;DHT22;53933;52.142;11.738;2022-11-03T02:39:10;22.70;74.10
67027;DHT22;53933;52.142;11.738;2022-11-03T02:41:41;22.70;74.10
67027;DHT22;53933;52.142;11.738;2022-11-03T02:44:13;22.80;74.10
67027;DHT22;53933;52.142;11.738;2022-11-03T02:46:42;22.80;74.20
67027;DHT22;53933;52.142;11.738;2022-11-03T02:49:10;22.80;74.20
67027;DHT22;53933;52.142;11.738;2022-11-03T02:51:37;22.70;74.20
67027;DHT22;53933;52.142;11.738;2022-11-03T02:54:06;22.70;74.10
67027;DHT22;53933;52.142;11.738;2022-11-03T02:56:37;22.80;74.20
67027;DHT22;53933;52.142;11.738;2022-11-03T02:59:10;22.80;74.00
67027;DHT22;53933;52.142;11.738;2022-11-03T03:01:41;22.80;74.10
67027;DHT22;53933;52.142;11.738;2022-11-03T03:04:16;22.80;74.30
67027;DHT22;53933;52.142;11.738;2022-11-03T03:06:49;22.70;74.20
67027;DHT22;53933;52.142;11.738;2022-11-03T03:09:19;22.70;74.20
67027;DHT22;53933;52.142;11.738;2022-11-03T03:11:48;22.80;74.20
67027;DHT22;53933;52.142;11.738;2022-11-03T03:14:22;22.80;74.20
67027;DHT22;53933;52.142;11.738;2022-11-03T03:16:53;22.80;74.20
67027;DHT22;53933;52.142;11.738;2022-11-03T03:19:29;22.70;74.10
67027;DHT22;53933;52.142;11.738;2022-11-03T03:22:01;22.80;74.10
67027;DHT22;53933;52.142;11.738;2022-11-03T03:24:36;22.70;74.20
67027;DHT22;53933;52.142;11.738;2022-11-03T03:27:08;22.80;73.80
67027;DHT22;53933;52.142;11.738;2022-11-03T03:29:40;22.70;73.90
67027;DHT22;53933;52.142;11.738;2022-11-03T03:32:09;22.80;73.90
67027;DHT22;53933;52.142;11.738;2022-11-03T03:34:39;22.80;74.20
67027;DHT22;53933;52.142;11.738;2022-11-03T03:37:08;22.80;75.00
67027;DHT22;53933;52.142;11.738;2022-11-03T03:39:38;22.70;74.10
67027;DHT22;53933;52.142;11.738;2022-11-03T03:42:07;22.80;74.20
67027;DHT22;53933;52.142;11.738;2022-11-03T03:44:36;22.80;74.20
67027;DHT22;53933;52.142;11.738;2022-11-03T03:47:09;22.70;74.10
67027;DHT22;53933;52.142;11.738;2022-11-03T03:49:37;22.70;74.10
67027;DHT22;53933;52.142;11.738;2022-11-03T03:52:04;22.70;74.20
67027;DHT22;53933;52.142;11.738;2022-11-03T03:54:30;22.70;74.00
67027;DHT22;53933;52.142;11.738;2022-11-03T03:57:00;22.70;74.20
67027;DHT22;53933;52.142;11.738;2022-11-03T03:59:28;22.70;74.20
67027;DHT22;53933;52.142;11.738;2022-11-03T04:01:55;22.70;74.10
67027;DHT22;53933;52.142;11.738;2022-11-03T04:04:23;22.70;74.20
67027;DHT22;53933;52.142;11.738;2022-11-03T04:06:51;22.70;74.20
67027;DHT22;53933;52.142;11.738;2022-11-03T04:09:38;22.70;74.10
67027;DHT22;53933;52.142;11.738;2022-11-03T04:12:09;22.70;74.10
67027;DHT22;53933;52.142;11.738;2022-11-03T04:14:53;22.70;74.10
67027;DHT22;53933;52.142;11.738;2022-11-03T04:17:38;22.70;74.10
67027;DHT22;53933;52.142;11.738;2022-11-03T04:20:26;22.70;74.00
67027;DHT22;53933;52.142;11.738;2022-11-03T04:23:25;22.70;74.10
67027;DHT22;53933;52.142;11.738;2022-11-03T04:25:53;22.70;74.20
67027;DHT22;53933;52.142;11.738;2022-11-03T04:28:21;22.70;74.10
67027;DHT22;53933;52.142;11.738;2022-11-03T04:30:48;22.70;74.20
67027;DHT22;53933;52.142;11.738;2022-11-03T04:33:16;22.70;74.20
67027;DHT22;53933;52.142;11.738;2022-11-03T04:35:45;22.70;74.10
67027;DHT22;53933;52.142;11.738;2022-11-03T04:38:21;22.70;74.00
67027;DHT22;53933;52.142;11.738;2022-11-03T04:40:52;22.70;74.10
67027;DHT22;53933;52.142;11.738;2022-11-03T04:43:21;22.70;74.10
67027;DHT22;53933;52.142;11.738;2022-11-03T04:45:48;22.70;74.30
67027;DHT22;53933;52.142;11.738;2022-11-03T04:48:18;22.70;74.20
67027;DHT22;53933;52.142;11.738;2022-11-03T04:50:48;22.70;74.10
67027;DHT22;53933;52.142;11.738;2022-11-03T04:53:16;22.70;74.10
67027;DHT22;53933;52.142;11.738;2022-11-03T04:55:46;22.70;74.10
67027;DHT22;53933;52.142;11.738;2022-11-03T04:58:18;22.60;74.10
67027;DHT22;53933;52.142;11.738;2022-11-03T05:00:46;22.70;74.10
67027;DHT22;53933;52.142;11.738;2022-11-03T05:03:16;22.70;74.10
67027;DHT22;53933;52.142;11.738;2022-11-03T05:05:47;22.70;74.10
67027;DHT22;53933;52.142;11.738;2022-11-03T05:08:15;22.60;74.00
67027;DHT22;53933;52.142;11.738;2022-11-03T05:10:42;22.70;74.20
67027;DHT22;53933;52.142;11.738;2022-11-03T05:13:15;22.60;73.90
67027;DHT22;53933;52.142;11.738;2022-11-03T05:15:43;22.70;74.10
67027;DHT22;53933;52.142;11.738;2022-11-03T05:18:17;22.60;74.00
67027;DHT22;53933;52.142;11.738;2022-11-03T05:20:49;22.60;73.90
67027;DHT22;53933;52.142;11.738;2022-11-03T05:23:18;22.70;74.00
67027;DHT22;53933;52.142;11.738;2022-11-03T05:25:47;22.70;73.90
67027;DHT22;53933;52.142;11.738;2022-11-03T05:28:22;22.70;73.80
67027;DHT22;53933;52.142;11.738;2022-11-03T05:30:50;22.70;74.00
67027;DHT22;53933;52.142;11.738;2022-11-03T05:33:24;22.70;73.90
67027;DHT22;53933;52.142;11.738;2022-11-03T05:35:53;22.70;73.90
67027;DHT22;53933;52.142;11.738;2022-11-03T05:38:21;22.70;73.80
67027;DHT22;53933;52.142;11.738;2022-11-03T05:40:50;22.70;74.00
67027;DHT22;53933;52.142;11.738;2022-11-03T05:43:19;22.70;73.90
67027;DHT22;53933;52.142;11.738;2022-11-03T05:45:47;22.60;73.90
67027;DHT22;53933;52.142;11.738;2022-11-03T05:48:18;22.60;74.80
67027;DHT22;53933;52.142;11.738;2022-11-03T05:50:45;22.60;73.80
67027;DHT22;53933;52.142;11.738;2022-11-03T05:53:27;22.60;74.00
67027;DHT22;53933;52.142;11.738;2022-11-03T05:55:55;22.60;74.10
67027;DHT22;53933;52.142;11.738;2022-11-03T05:58:26;22.70;74.00
67027;DHT22;53933;52.142;11.738;2022-11-03T06:00:53;22.60;74.00
67027;DHT22;53933;52.142;11.738;2022-11-03T06:03:23;22.70;74.00
67027;DHT22;53933;52.142;11.738;2022-11-03T06:05:51;22.70;73.90
67027;DHT22;53933;52.142;11.738;2022-11-03T06:08:20;22.70;74.00
67027;DHT22;53933;52.142;11.738;2022-11-03T06:10:52;22.60;73.90
67027;DHT22;53933;52.142;11.738;2022-11-03T06:13:21;22.60;73.80
67027;DHT22;53933;52.142;11.738;2022-11-03T06:15:55;22.60;73.80
67027;DHT22;53933;52.142;11.738;2022-11-03T06:18:24;22.60;73.80
67027;DHT22;53933;52.142;11.738;2022-11-03T06:20:53;22.60;74.10
67027;DHT22;53933;52.142;11.738;2022-11-03T06:23:22;22.60;73.60
67027;DHT22;53933;52.142;11.738;2022-11-03T06:25:50;22.70;73.80
67027;DHT22;53933;52.142;11.738;2022-11-03T06:28:20;22.60;73.80
67027;DHT22;53933;52.142;11.738;2022-11-03T06:30:48;22.70;73.80
67027;DHT22;53933;52.142;11.738;2022-11-03T06:33:18;22.70;73.90
67027;DHT22;53933;52.142;11.738;2022-11-03T06:35:46;22.70;73.80
67027;DHT22;53933;52.142;11.738;2022-11-03T06:38:17;22.70;73.60
67027;DHT22;53933;52.142;11.738;2022-11-03T06:40:48;22.70;73.70
67027;DHT22;53933;52.142;11.738;2022-11-03T06:43:19;22.70;73.60
67027;DHT22;53933;52.142;11.738;2022-11-03T06:45:51;22.70;73.60
67027;DHT22;53933;52.142;11.738;2022-11-03T06:48:24;22.70;73.70
67027;DHT22;53933;52.142;11.738;2022-11-03T06:50:51;22.70;73.60
67027;DHT22;53933;52.142;11.738;2022-11-03T06:53:21;22.70;73.70
67027;DHT22;53933;52.142;11.738;2022-11-03T06:55:50;22.70;73.60
67027;DHT22;53933;52.142;11.738;2022-11-03T06:58:23;22.70;73.60
67027;DHT22;53933;52.142;11.738;2022-11-03T07:00:53;22.70;73.50
67027;DHT22;53933;52.142;11.738;2022-11-03T07:03:23;22.70;73.50
67027;DHT22;53933;52.142;11.738;2022-11-03T07:05:58;22.80;73.50
67027;DHT22;53933;52.142;11.738;2022-11-03T07:08:27;22.80;73.40
67027;DHT22;53933;52.142;11.738;2022-11-03T07:11:06;22.80;73.20
67027;DHT22;53933;52.142;11.738;2022-11-03T07:13:36;22.90;72.90
67027;DHT22;53933;52.142;11.738;2022-11-03T07:16:03;22.90;72.40
67027;DHT22;53933;52.142;11.738;2022-11-03T07:18:33;23.00;72.50
67027;DHT22;53933;52.142;11.738;2022-11-03T07:21:04;23.10;72.40
67027;DHT22;53933;52.142;11.738;2022-11-03T07:23:31;23.10;72.20
67027;DHT22;53933;52.142;11.738;2022-11-03T07:25:59;23.20;72.20
67027;DHT22;53933;52.142;11.738;2022-11-03T07:28:33;23.30;71.90
67027;DHT22;53933;52.142;11.738;2022-11-03T07:31:05;23.30;71.80
67027;DHT22;53933;52.142;11.738;2022-11-03T07:33:35;23.40;71.60
67027;DHT22;53933;52.142;11.738;2022-11-03T07:36:03;23.50;71.40
67027;DHT22;53933;52.142;11.738;2022-11-03T07:38:32;23.50;71.10
67027;DHT22;53933;52.142;11.738;2022-11-03T07:40:59;23.60;71.00
67027;DHT22;53933;52.142;11.738;2022-11-03T07:43:30;23.60;70.80
67027;DHT22;53933;52.142;11.738;2022-11-03T07:46:01;23.60;71.60
67027;DHT22;53933;52.142;11.738;2022-11-03T07:48:32;23.60;70.60
67027;DHT22;53933;52.142;11.738;2022-11-03T07:51:10;23.70;70.50
67027;DHT22;53933;52.142;11.738;2022-11-03T07:53:42;23.70;70.40
67027;DHT22;53933;52.142;11.738;2022-11-03T07:56:14;23.70;70.30
67027;DHT22;53933;52.142;11.738;2022-11-03T07:58:45;23.80;70.30
67027;DHT22;53933;52.142;11.738;2022-11-03T08:01:23;23.80;70.20
67027;DHT22;53933;52.142;11.738;2022-11-03T08:03:51;23.80;70.10
67027;DHT22;53933;52.142;11.738;2022-11-03T08:06:18;23.80;70.00
67027;DHT22;53933;52.142;11.738;2022-11-03T08:08:45;23.80;70.10
67027;DHT22;53933;52.142;11.738;2022-11-03T08:11:11;23.80;70.10
67027;DHT22;53933;52.142;11.738;2022-11-03T08:13:38;23.80;70.20
67027;DHT22;53933;52.142;11.738;2022-11-03T08:16:06;23.80;70.10
67027;DHT22;53933;52.142;11.738;2022-11-03T08:18:33;23.80;70.20
67027;DHT22;53933;52.142;11.738;2022-11-03T08:21:01;23.80;70.20
67027;DHT22;53933;52.142;11.738;2022-11-03T08:23:28;23.80;70.20
67027;DHT22;53933;52.142;11.738;2022-11-03T08:25:55;23.80;70.20
67027;DHT22;53933;52.142;11.738;2022-11-03T08:28:21;23.80;70.20
67027;DHT22;53933;52.142;11.738;2022-11-03T08:30:48;23.80;70.20
67027;DHT22;53933;52.142;11.738;2022-11-03T08:33:17;23.80;70.10
67027;DHT22;53933;52.142;11.738;2022-11-03T08:35:43;23.80;70.10
67027;DHT22;53933;52.142;11.738;2022-11-03T08:38:10;23.80;70.20
67027;DHT22;53933;52.142;11.738;2022-11-03T08:40:37;23.80;70.10
67027;DHT22;53933;52.142;11.738;2022-11-03T08:43:03;23.80;70.10
67027;DHT22;53933;52.142;11.738;2022-11-03T08:45:31;23.80;70.10
67027;DHT22;53933;52.142;11.738;2022-11-03T08:47:57;23.80;70.10
67027;DHT22;53933;52.142;11.738;2022-11-03T08:50:25;23.80;70.00
67027;DHT22;53933;52.142;11.738;2022-11-03T08:52:52;23.80;70.00
67027;DHT22;53933;52.142;11.738;2022-11-03T08:55:19;23.80;70.00
67027;DHT22;53933;52.142;11.738;2022-11-03T08:57:45;23.80;69.90
67027;DHT22;53933;52.142;11.738;2022-11-03T09:00:13;23.80;69.90
67027;DHT22;53933;52.142;11.738;2022-11-03T09:02:41;23.80;69.90
67027;DHT22;53933;52.142;11.738;2022-11-03T09:05:09;23.80;70.00
67027;DHT22;53933;52.142;11.738;2022-11-03T09:07:38;23.80;70.20
67027;DHT22;53933;52.142;11.738;2022-11-03T09:10:06;23.80;70.30
67027;DHT22;53933;52.142;11.738;2022-11-03T09:12:34;23.70;70.30
67027;DHT22;53933;52.142;11.738;2022-11-03T09:15:00;23.70;70.40
67027;DHT22;53933;52.142;11.738;2022-11-03T09:17:27;23.60;70.50
67027;DHT22;53933;52.142;11.738;2022-11-03T09:19:54;23.60;70.60
67027;DHT22;53933;52.142;11.738;2022-11-03T09:22:20;23.60;70.60
67027;DHT22;53933;52.142;11.738;2022-11-03T09:24:49;23.60;70.80
67027;DHT22;53933;52.142;11.738;2022-11-03T09:27:15;23.60;70.80
67027;DHT22;53933;52.142;11.738;2022-11-03T09:29:42;23.60;71.00
67027;DHT22;53933;52.142;11.738;2022-11-03T09:32:09;23.60;71.00
67027;DHT22;53933;52.142;11.738;2022-11-03T09:34:36;23.50;71.00
67027;DHT22;53933;52.142;11.738;2022-11-03T09:37:03;23.50;71.00
67027;DHT22;53933;52.142;11.738;2022-11-03T09:39:29;23.50;71.00
67027;DHT22;53933;52.142;11.738;2022-11-03T09:41:58;23.50;71.00
67027;DHT22;53933;52.142;11.738;2022-11-03T09:44:27;23.50;71.10
67027;DHT22;53933;52.142;11.738;2022-11-03T09:46:54;23.50;71.00
67027;DHT22;53933;52.142;11.738;2022-11-03T09:49:21;23.50;71.10
67027;DHT22;53933;52.142;11.738;2022-11-03T09:51:48;23.50;71.10
67027;DHT22;53933;52.142;11.738;2022-11-03T09:54:15;23.40;71.10
67027;DHT22;53933;52.142;11.738;2022-11-03T09:56:43;23.50;71.20
67027;DHT22;53933;52.142;11.738;2022-11-03T09:59:16;23.50;71.20
67027;DHT22;53933;52.142;11.738;2022-11-03T10:01:45;23.40;71.20
67027;DHT22;53933;52.142;11.738;2022-11-03T10:04:14;23.50;71.20
67027;DHT22;53933;52.142;11.738;2022-11-03T10:06:42;23.40;71.10
67027;DHT22;53933;52.142;11.738;2022-11-03T10:09:13;23.50;71.20
67027;DHT22;53933;52.142;11.738;2022-11-03T10:11:40;23.50;71.20
67027;DHT22;53933;52.142;11.738;2022-11-03T10:14:09;23.50;71.20
67027;DHT22;53933;52.142;11.738;2022-11-03T10:16:40;23.40;71.20
67027;DHT22;53933;52.142;11.738;2022-11-03T10:19:08;23.50;71.30
67027;DHT22;53933;52.142;11.738;2022-11-03T10:21:35;23.50;71.30
67027;DHT22;53933;52.142;11.738;2022-11-03T10:24:02;23.40;71.10
67027;DHT22;53933;52.142;11.738;2022-11-03T10:26:42;23.40;71.20
67027;DHT22;53933;52.142;11.738;2022-11-03T10:29:16;23.40;71.20
67027;DHT22;53933;52.142;11.738;2022-11-03T10:31:46;23.50;71.20
67027;DHT22;53933;52.142;11.738;2022-11-03T10:34:27;23.50;71.20
67027;DHT22;53933;52.142;11.738;2022-11-03T10:37:14;23.50;71.10
67027;DHT22;53933;52.142;11.738;2022-11-03T10:39:43;23.40;71.00
67027;DHT22;53933;52.142;11.738;2022-11-03T10:42:17;23.50;71.10
67027;DHT22;53933;52.142;11.738;2022-11-03T10:44:45;23.50;71.10
67027;DHT22;53933;52.142;11.738;2022-11-03T10:47:23;23.50;71.10
67027;DHT22;53933;52.142;11.738;2022-11-03T10:49:50;23.50;71.10
67027;DHT22;53933;52.142;11.738;2022-11-03T10:52:20;23.50;71.10
67027;DHT22;53933;52.142;11.738;2022-11-03T10:54:48;23.50;71.10
67027;DHT22;53933;52.142;11.738;2022-11-03T10:57:16;23.50;71.00
67027;DHT22;53933;52.142;11.738;2022-11-03T10:59:44;23.50;71.00
67027;DHT22;53933;52.142;11.738;2022-11-03T11:02:16;23.50;71.00
67027;DHT22;53933;52.142;11.738;2022-11-03T11:04:45;23.50;70.90
67027;DHT22;53933;52.142;11.738;2022-11-03T11:07:18;23.60;70.90
67027;DHT22;53933;52.142;11.738;2022-11-03T11:09:45;23.60;70.80
67027;DHT22;53933;52.142;11.738;2022-11-03T11:12:16;23.60;70.70
67027;DHT22;53933;52.142;11.738;2022-11-03T11:14:54;23.60;70.60
67027;DHT22;53933;52.142;11.738;2022-11-03T11:17:46;23.70;70.40
67027;DHT22;53933;52.142;11.738;2022-11-03T11:20:42;23.70;70.40
67027;DHT22;53933;52.142;11.738;2022-11-03T11:26:32;23.70;70.30
67027;DHT22;53933;52.142;11.738;2022-11-03T11:40:49;23.80;70.20
67027;DHT22;53933;52.142;11.738;2022-11-03T11:43:26;23.80;70.20
67027;DHT22;53933;52.142;11.738;2022-11-03T11:46:31;23.80;70.20
67027;DHT22;53933;52.142;11.738;2022-11-03T11:49:15;23.80;70.20
67027;DHT22;53933;52.142;11.738;2022-11-03T11:51:42;23.80;70.20
67027;DHT22;53933;52.142;11.738;2022-11-03T11:54:13;23.80;70.30
67027;DHT22;53933;52.142;11.738;2022-11-03T11:56:43;23.80;70.30
67027;DHT22;53933;52.142;11.738;2022-11-03T11:59:17;23.80;70.30
67027;DHT22;53933;52.142;11.738;2022-11-03T12:01:48;23.90;70.30
67027;DHT22;53933;52.142;11.738;2022-11-03T12:04:19;23.80;70.30
67027;DHT22;53933;52.142;11.738;2022-11-03T12:06:46;23.80;70.40
67027;DHT22;53933;52.142;11.738;2022-11-03T12:09:16;23.80;70.40
67027;DHT22;53933;52.142;11.738;2022-11-03T12:11:46;23.80;70.30
67027;DHT22;53933;52.142;11.738;2022-11-03T12:14:23;23.90;70.30
67027;DHT22;53933;52.142;11.738;2022-11-03T12:16:50;23.90;70.40
67027;DHT22;53933;52.142;11.738;2022-11-03T12:19:38;23.90;70.30
67027;DHT22;53933;52.142;11.738;2022-11-03T12:22:08;23.90;70.30
67027;DHT22;53933;52.142;11.738;2022-11-03T12:24:38;23.90;70.30
67027;DHT22;53933;52.142;11.738;2022-11-03T12:27:42;23.90;70.50
67027;DHT22;53933;52.142;11.738;2022-11-03T12:30:14;23.90;70.70
67027;DHT22;53933;52.142;11.738;2022-11-03T12:32:41;23.90;70.80
67027;DHT22;53933;52.142;11.738;2022-11-03T12:35:09;23.90;70.80
67027;DHT22;53933;52.142;11.738;2022-11-03T12:37:36;23.90;70.80
67027;DHT22;53933;52.142;11.738;2022-11-03T12:40:04;23.80;70.80
67027;DHT22;53933;52.142;11.738;2022-11-03T12:42:31;23.90;70.80
67027;DHT22;53933;52.142;11.738;2022-11-03T12:44:59;23.90;71.00
67027;DHT22;53933;52.142;11.738;2022-11-03T12:47:26;23.90;71.00
67027;DHT22;53933;52.142;11.738;2022-11-03T12:49:52;23.80;71.00
67027;DHT22;53933;52.142;11.738;2022-11-03T12:52:19;23.80;71.10
67027;DHT22;53933;52.142;11.738;2022-11-03T12:54:46;23.80;71.10
67027;DHT22;53933;52.142;11.738;2022-11-03T12:57:12;23.80;71.20
67027;DHT22;53933;52.142;11.738;2022-11-03T12:59:39;23.80;71.40
67027;DHT22;53933;52.142;11.738;2022-11-03T13:02:09;23.80;71.30
67027;DHT22;53933;52.142;11.738;2022-11-03T13:04:36;23.80;71.40
67027;DHT22;53933;52.142;11.738;2022-11-03T13:07:02;23.80;71.40
67027;DHT22;53933;52.142;11.738;2022-11-03T13:09:29;23.80;71.60
67027;DHT22;53933;52.142;11.738;2022-11-03T13:11:56;23.80;71.70
67027;DHT22;53933;52.142;11.738;2022-11-03T13:14:40;23.80;71.70
67027;DHT22;53933;52.142;11.738;2022-11-03T13:17:08;23.80;71.60
67027;DHT22;53933;52.142;11.738;2022-11-03T13:19:34;23.80;71.70
67027;DHT22;53933;52.142;11.738;2022-11-03T13:22:01;23.80;71.90
67027;DHT22;53933;52.142;11.738;2022-11-03T13:24:28;23.80;72.00
67027;DHT22;53933;52.142;11.738;2022-11-03T13:26:54;23.80;72.10
67027;DHT22;53933;52.142;11.738;2022-11-03T13:29:21;23.80;72.10
67027;DHT22;53933;52.142;11.738;2022-11-03T13:31:48;23.80;72.20
67027;DHT22;53933;52.142;11.738;2022-11-03T13:34:16;23.80;72.20
67027;DHT22;53933;52.142;11.738;2022-11-03T13:36:42;23.80;72.20
67027;DHT22;53933;52.142;11.738;2022-11-03T13:39:09;23.70;72.50
67027;DHT22;53933;52.142;11.738;2022-11-03T13:41:37;23.70;72.60
67027;DHT22;53933;52.142;11.738;2022-11-03T13:44:03;23.70;73.40
67027;DHT22;53933;52.142;11.738;2022-11-03T13:46:30;23.70;72.70
67027;DHT22;53933;52.142;11.738;2022-11-03T13:48:57;23.70;72.80
67027;DHT22;53933;52.142;11.738;2022-11-03T13:51:25;23.70;72.80
67027;DHT22;53933;52.142;11.738;2022-11-03T13:53:51;23.60;72.70
67027;DHT22;53933;52.142;11.738;2022-11-03T13:56:18;23.60;72.70
67027;DHT22;53933;52.142;11.738;2022-11-03T13:58:45;23.60;72.80
67027;DHT22;53933;52.142;11.738;2022-11-03T14:01:11;23.60;72.80
67027;DHT22;53933;52.142;11.738;2022-11-03T14:03:38;23.60;72.80
67027;DHT22;53933;52.142;11.738;2022-11-03T14:06:06;23.60;72.80
67027;DHT22;53933;52.142;11.738;2022-11-03T14:08:34;23.60;72.80
67027;DHT22;53933;52.142;11.738;2022-11-03T14:11:01;23.60;72.90
67027;DHT22;53933;52.142;11.738;2022-11-03T14:13:48;23.60;72.90
67027;DHT22;53933;52.142;11.738;2022-11-03T14:16:14;23.60;73.00
67027;DHT22;53933;52.142;11.738;2022-11-03T14:18:41;23.60;73.10
67027;DHT22;53933;52.142;11.738;2022-11-03T14:21:08;23.60;73.10
67027;DHT22;53933;52.142;11.738;2022-11-03T14:23:36;23.60;73.00
67027;DHT22;53933;52.142;11.738;2022-11-03T14:26:03;23.60;73.10
67027;DHT22;53933;52.142;11.738;2022-11-03T14:28:29;23.60;73.10
67027;DHT22;53933;52.142;11.738;2022-11-03T14:30:56;23.60;73.20
67027;DHT22;53933;52.142;11.738;2022-11-03T14:33:25;23.50;73.20
67027;DHT22;53933;52.142;11.738;2022-11-03T14:35:52;23.50;73.20
67027;DHT22;53933;52.142;11.738;2022-11-03T14:38:19;23.50;73.20
67027;DHT22;53933;52.142;11.738;2022-11-03T14:40:47;23.50;73.30
67027;DHT22;53933;52.142;11.738;2022-11-03T14:43:31;23.50;73.30
67027;DHT22;53933;52.142;11.738;2022-11-03T14:45:58;23.50;73.20
67027;DHT22;53933;52.142;11.738;2022-11-03T14:48:25;23.40;73.30
67027;DHT22;53933;52.142;11.738;2022-11-03T14:50:51;23.50;73.50
67027;DHT22;53933;52.142;11.738;2022-11-03T14:53:18;23.40;73.50
67027;DHT22;53933;52.142;11.738;2022-11-03T14:55:46;23.40;73.60
67027;DHT22;53933;52.142;11.738;2022-11-03T14:58:13;23.40;73.60
67027;DHT22;53933;52.142;11.738;2022-11-03T15:00:40;23.40;73.70
67027;DHT22;53933;52.142;11.738;2022-11-03T15:03:06;23.40;73.80
67027;DHT22;53933;52.142;11.738;2022-11-03T15:05:33;23.40;73.90
67027;DHT22;53933;52.142;11.738;2022-11-03T15:08:13;23.40;74.00
67027;DHT22;53933;52.142;11.738;2022-11-03T15:10:40;23.40;74.00
67027;DHT22;53933;52.142;11.738;2022-11-03T15:13:08;23.40;74.00
67027;DHT22;53933;52.142;11.738;2022-11-03T15:15:35;23.40;74.20
67027;DHT22;53933;52.142;11.738;2022-11-03T15:18:05;23.30;74.20
67027;DHT22;53933;52.142;11.738;2022-11-03T15:20:32;23.20;74.10
67027;DHT22;53933;52.142;11.738;2022-11-03T15:23:00;23.30;74.20
67027;DHT22;53933;52.142;11.738;2022-11-03T15:25:27;23.30;74.00
67027;DHT22;53933;52.142;11.738;2022-11-03T15:27:53;23.30;74.20
67027;DHT22;53933;52.142;11.738;2022-11-03T15:30:21;23.30;74.40
67027;DHT22;53933;52.142;11.738;2022-11-03T15:32:48;23.30;74.40
67027;DHT22;53933;52.142;11.738;2022-11-03T15:35:15;23.30;74.60
67027;DHT22;53933;52.142;11.738;2022-11-03T15:37:42;23.30;74.60
67027;DHT22;53933;52.142;11.738;2022-11-03T15:40:10;23.30;74.60
67027;DHT22;53933;52.142;11.738;2022-11-03T15:42:38;23.30;74.50
67027;DHT22;53933;52.142;11.738;2022-11-03T15:45:05;23.30;74.60
67027;DHT22;53933;52.142;11.738;2022-11-03T15:47:34;23.30;74.60